Weather at Mercy Hospital & Medical Center Heliport

Public forecast

Using degrees Fahrenheit for public forecast. Weather courtesy of forecast.io.

Closest aviation weather report (METAR) to Mercy Hospital & Medical Center Heliport

Closest report is San Diego International Airport, 1.8 nm (3.4 km) SW.

2024/07/14 16:51 (retrieved 11 minutes ago)

KSAN 141651Z VRB03KT 10SM OVC014 22/18 A3008 RMK AO2 SLP184 T02220178

Closest aviation forecast (TAF) to Mercy Hospital & Medical Center Heliport

Closest forecast is San Diego International Airport, 1.8 nm (3.4 km) SW.

2024/07/14 15:03 Ammendment (retrieved 2 hours ago)

TAF AMD KSAN 141500Z 1415/1518 VRB03KT P6SM OVC012 FM141700 29006KT P6SM SCT012 FM142000 29010KT P6SM SCT150 FM150400 VRB04KT P6SM BKN012 FM151700 29007KT P6SM SCT012